createdAt,value
2017-08-31T00:01:29.249Z,96592.81
2017-08-31T00:06:15.874Z,96616.77
2017-08-31T00:11:02.766Z,96620.01
2017-08-31T00:15:49.421Z,96626.86
2017-08-31T00:20:36.092Z,96617.91
2017-08-31T00:25:22.844Z,96619.26
2017-08-31T00:30:09.534Z,96615.01
2017-08-31T00:34:56.176Z,96635.77
2017-08-31T00:39:43.072Z,96630.41
2017-08-31T00:44:29.676Z,96647.91
2017-08-31T00:49:16.290Z,96658.72
2017-08-31T00:54:02.902Z,96659.47
2017-08-31T00:58:49.528Z,96663.69
2017-08-31T01:03:36.528Z,96677.37
2017-08-31T01:08:23.133Z,96720.45
2017-08-31T01:13:09.891Z,96720.98
2017-08-31T01:17:56.975Z,96729.02
2017-08-31T01:22:43.577Z,96722.76
2017-08-31T01:27:30.548Z,96732.28
2017-08-31T01:32:17.212Z,96738.61
2017-08-31T01:37:04.191Z,96749.49
2017-08-31T01:41:50.844Z,96740.92
2017-08-31T01:46:37.858Z,96741.11
2017-08-31T01:51:24.492Z,96774.20
2017-08-31T01:56:11.121Z,96777.61
2017-08-31T02:00:57.922Z,96775.83
2017-08-31T02:05:44.794Z,96773.56
2017-08-31T02:10:31.872Z,96780.34
2017-08-31T02:15:18.636Z,96775.34
2017-08-31T02:20:05.409Z,96775.72
2017-08-31T02:24:52.248Z,96776.20
2017-08-31T02:29:38.977Z,96769.63
2017-08-31T02:34:26.017Z,96778.78
2017-08-31T02:39:13.095Z,96774.22
2017-08-31T02:43:59.712Z,96768.66
2017-08-31T02:48:46.353Z,96771.81
2017-08-31T02:53:32.964Z,96781.00
2017-08-31T02:58:19.567Z,96789.28
2017-08-31T03:03:06.669Z,96790.93
2017-08-31T03:07:53.268Z,96792.99
2017-08-31T03:12:39.968Z,96795.91
2017-08-31T03:17:33.662Z,96799.58
2017-08-31T03:22:20.479Z,96788.69
2017-08-31T03:27:07.546Z,96788.59
2017-08-31T03:31:54.562Z,96798.28
2017-08-31T03:36:41.177Z,96796.39
2017-08-31T03:41:27.817Z,96789.50
2017-08-31T03:46:14.445Z,96792.13
2017-08-31T03:51:01.264Z,96791.47
2017-08-31T03:55:48.965Z,96786.79
2017-08-31T04:00:35.575Z,96795.18
2017-08-31T04:05:22.181Z,96802.06
2017-08-31T04:10:08.849Z,96800.45
2017-08-31T04:14:55.532Z,96811.77
2017-08-31T04:19:42.682Z,96819.56
2017-08-31T04:24:29.356Z,96816.07
2017-08-31T04:29:16.000Z,96818.95
2017-08-31T04:34:02.981Z,96810.13
2017-08-31T04:38:49.613Z,96815.83
2017-08-31T04:43:37.438Z,96812.61
2017-08-31T04:48:24.044Z,96815.34
2017-08-31T04:53:10.965Z,96802.93
2017-08-31T04:57:57.579Z,96800.78
2017-08-31T05:02:44.181Z,96789.95
2017-08-31T05:07:30.928Z,96788.31
2017-08-31T05:12:18.009Z,96779.13
2017-08-31T05:17:04.693Z,96782.39
2017-08-31T05:21:51.496Z,96783.81
2017-08-31T05:26:38.194Z,96775.39
2017-08-31T05:31:24.951Z,96772.59
2017-08-31T05:36:11.627Z,96776.87
2017-08-31T05:40:58.412Z,96769.66
2017-08-31T05:45:45.296Z,96781.91
2017-08-31T05:50:31.883Z,96769.65
2017-08-31T05:55:18.557Z,96774.53
2017-08-31T06:00:05.190Z,96768.30
2017-08-31T06:04:52.115Z,96772.17
2017-08-31T06:09:38.745Z,96769.55
2017-08-31T06:14:25.384Z,96772.30
2017-08-31T06:19:12.035Z,96764.31
2017-08-31T06:23:58.640Z,96750.67
2017-08-31T06:28:45.261Z,96740.64
2017-08-31T06:33:32.612Z,96741.63
2017-08-31T06:38:19.253Z,96752.30
2017-08-31T06:43:05.941Z,96751.64
2017-08-31T06:47:52.592Z,96742.78
2017-08-31T06:52:39.648Z,96739.87
2017-08-31T06:57:26.362Z,96745.28
2017-08-31T07:02:13.054Z,96747.25
2017-08-31T07:06:59.753Z,96744.73
2017-08-31T07:11:46.359Z,96737.28
2017-08-31T07:16:33.190Z,96731.61
2017-08-31T07:21:19.839Z,96733.68
2017-08-31T07:26:06.474Z,96746.63
2017-08-31T07:30:53.218Z,96754.88
2017-08-31T07:35:40.168Z,96747.05
2017-08-31T07:40:27.272Z,96741.30
2017-08-31T07:45:13.896Z,96745.71
2017-08-31T07:50:00.493Z,96738.56
2017-08-31T07:54:47.115Z,96727.92
2017-08-31T07:59:33.766Z,96720.32
2017-08-31T08:04:20.379Z,96728.00
2017-08-31T08:09:07.296Z,96736.44
2017-08-31T08:13:54.019Z,96720.42
2017-08-31T08:18:40.737Z,96720.58
2017-08-31T08:23:27.358Z,96720.62
2017-08-31T08:28:14.037Z,96717.16
2017-08-31T08:33:00.703Z,96725.97
2017-08-31T08:37:47.425Z,96722.48
2017-08-31T08:42:34.260Z,96727.17
2017-08-31T08:47:20.878Z,96715.58
2017-08-31T08:52:07.810Z,96721.58
2017-08-31T08:56:55.248Z,96725.53
2017-08-31T09:01:41.847Z,96733.91
2017-08-31T09:06:28.469Z,96740.61
2017-08-31T09:11:15.088Z,96745.09
2017-08-31T09:16:02.001Z,96740.38
2017-08-31T09:20:48.653Z,96745.56
2017-08-31T09:25:35.274Z,96754.20
2017-08-31T09:30:22.199Z,96765.95
2017-08-31T09:35:08.961Z,96766.83
2017-08-31T09:39:55.633Z,96765.05
2017-08-31T09:44:42.269Z,96776.27
2017-08-31T09:49:29.186Z,96768.64
2017-08-31T09:54:15.792Z,96750.00
2017-08-31T09:59:02.434Z,96757.98
2017-08-31T10:03:49.044Z,96755.45
2017-08-31T10:08:35.770Z,96749.45
2017-08-31T10:13:22.413Z,96759.55
2017-08-31T10:18:09.389Z,96762.94
2017-08-31T10:22:56.001Z,96762.90
2017-08-31T10:27:42.609Z,96759.66
2017-08-31T10:32:29.380Z,96765.03
2017-08-31T10:37:16.020Z,96794.97
2017-08-31T10:42:02.646Z,96788.38
2017-08-31T10:46:49.862Z,96782.52
2017-08-31T10:51:36.482Z,96790.54
2017-08-31T10:56:23.088Z,96796.34
2017-08-31T11:01:10.695Z,96810.05
2017-08-31T11:05:57.398Z,96809.88
2017-08-31T11:10:44.894Z,96814.87
2017-08-31T11:15:31.941Z,96819.69
2017-08-31T11:20:18.532Z,96825.20
2017-08-31T11:25:05.245Z,96821.68
2017-08-31T11:29:52.225Z,96838.91
2017-08-31T11:34:38.813Z,96847.58
2017-08-31T11:39:25.421Z,96856.30
2017-08-31T11:44:12.460Z,96876.41
2017-08-31T11:48:59.184Z,96887.64
2017-08-31T11:53:46.068Z,96904.88
2017-08-31T11:58:32.704Z,96918.50
2017-08-31T12:03:19.657Z,96937.27
2017-08-31T12:08:06.285Z,96958.05
2017-08-31T12:12:52.911Z,96962.84
2017-08-31T12:17:39.943Z,96960.56
2017-08-31T12:22:26.581Z,96964.19
2017-08-31T12:27:13.205Z,96960.98
2017-08-31T12:31:59.831Z,96960.36
2017-08-31T12:36:46.495Z,96972.98
2017-08-31T12:41:33.110Z,96978.20
2017-08-31T12:46:19.726Z,96981.13
2017-08-31T12:51:06.411Z,97003.81
2017-08-31T12:55:53.020Z,97011.42
2017-08-31T13:00:39.633Z,97004.75
2017-08-31T13:05:26.558Z,97004.02
2017-08-31T13:10:13.173Z,97011.20
2017-08-31T13:14:59.791Z,97021.80
2017-08-31T13:19:46.425Z,97013.00
2017-08-31T13:24:33.053Z,97030.98
2017-08-31T13:29:20.010Z,97042.78
2017-08-31T13:34:06.618Z,97047.52
2017-08-31T13:38:53.271Z,97056.88
2017-08-31T13:43:39.906Z,97062.79
2017-08-31T13:48:26.627Z,97055.67
2017-08-31T13:53:13.269Z,97049.25
2017-08-31T13:58:00.387Z,97046.96
2017-08-31T14:02:47.188Z,97053.82
2017-08-31T14:07:33.858Z,97066.13
2017-08-31T14:12:20.661Z,97075.38
2017-08-31T14:17:07.696Z,97069.95
2017-08-31T14:21:54.345Z,97072.56
2017-08-31T14:26:40.986Z,97081.69
2017-08-31T14:31:27.605Z,97078.59
2017-08-31T14:36:14.234Z,97082.95
2017-08-31T14:41:00.845Z,97073.97
2017-08-31T14:45:47.471Z,97075.21
2017-08-31T14:50:34.079Z,97081.55
2017-08-31T14:55:21.788Z,97081.59
2017-08-31T15:00:08.426Z,97088.48
2017-08-31T15:04:55.220Z,97091.72
2017-08-31T15:09:42.244Z,97110.74
2017-08-31T15:14:28.965Z,97123.09
2017-08-31T15:19:15.596Z,97126.06
2017-08-31T15:24:02.240Z,97129.66
2017-08-31T15:28:48.843Z,97135.80
2017-08-31T15:33:35.493Z,97134.27
2017-08-31T15:38:22.569Z,97131.92
2017-08-31T15:43:09.162Z,97127.05
2017-08-31T15:47:55.772Z,97138.02
2017-08-31T15:52:42.394Z,97142.14
2017-08-31T15:57:29.372Z,97144.33
2017-08-31T16:02:16.310Z,97130.97
2017-08-31T16:07:02.951Z,97135.14
2017-08-31T16:11:50.336Z,97141.50
2017-08-31T16:16:36.998Z,97147.96
2017-08-31T16:21:23.660Z,97160.84
2017-08-31T16:26:10.646Z,97178.19
2017-08-31T16:30:57.333Z,97187.92
2017-08-31T16:35:43.978Z,97197.22
2017-08-31T16:40:30.657Z,97215.64
2017-08-31T16:45:17.397Z,97222.63
2017-08-31T16:50:04.331Z,97232.20
2017-08-31T16:54:51.046Z,97228.18
2017-08-31T16:59:37.685Z,97239.17
2017-08-31T17:04:24.388Z,97238.81
2017-08-31T17:09:11.067Z,97237.83
2017-08-31T17:13:57.731Z,97257.30
2017-08-31T17:18:44.820Z,97266.80
2017-08-31T17:23:31.619Z,97275.88
2017-08-31T17:28:18.370Z,97296.87
2017-08-31T17:33:05.106Z,97327.79
2017-08-31T17:37:51.863Z,97333.34
2017-08-31T17:42:38.550Z,97353.88
2017-08-31T17:47:25.660Z,97361.65
2017-08-31T17:52:12.448Z,97377.56
2017-08-31T17:56:59.136Z,97379.05
2017-08-31T18:01:45.844Z,97393.16
2017-08-31T18:06:32.511Z,97393.87
2017-08-31T18:11:19.660Z,97383.34
2017-08-31T18:16:07.155Z,97374.52
2017-08-31T18:20:53.957Z,97376.75
2017-08-31T18:25:40.841Z,97392.57
2017-08-31T18:30:27.644Z,97393.45
2017-08-31T18:35:14.396Z,97378.63
2017-08-31T18:40:01.143Z,97390.88
2017-08-31T18:44:48.280Z,97398.19
2017-08-31T18:49:35.044Z,97387.47
2017-08-31T18:54:21.792Z,97391.73
2017-08-31T18:59:08.551Z,97396.27
2017-08-31T19:03:55.331Z,97397.77
2017-08-31T19:08:42.056Z,97395.44
2017-08-31T19:13:29.106Z,97383.31
2017-08-31T19:18:15.871Z,97379.13
2017-08-31T19:23:02.715Z,97372.82
2017-08-31T19:27:50.010Z,97384.59
2017-08-31T19:32:36.776Z,97368.36
2017-08-31T19:37:23.676Z,97369.64
2017-08-31T19:42:10.831Z,97377.80
2017-08-31T19:46:57.554Z,97384.66
2017-08-31T19:51:44.334Z,97374.97
2017-08-31T19:56:31.079Z,97384.87
2017-08-31T20:01:17.933Z,97394.30
2017-08-31T20:06:04.751Z,97384.72
2017-08-31T20:10:52.037Z,97354.01
2017-08-31T20:15:38.743Z,97342.97
2017-08-31T20:20:26.218Z,97347.20
2017-08-31T20:25:13.026Z,97351.45
2017-08-31T20:30:00.001Z,97346.28
2017-08-31T20:34:46.651Z,97347.94
2017-08-31T20:39:33.678Z,97357.11
2017-08-31T20:44:20.388Z,97355.98
2017-08-31T20:49:07.108Z,97345.09
2017-08-31T20:53:53.720Z,97355.04
2017-08-31T20:58:40.345Z,97349.45
2017-08-31T21:03:26.993Z,97360.34
2017-08-31T21:08:13.641Z,97354.86
2017-08-31T21:13:00.271Z,97357.39
2017-08-31T21:17:46.888Z,97375.11
2017-08-31T21:22:33.520Z,97367.29
2017-08-31T21:27:20.128Z,97371.17
2017-08-31T21:32:06.878Z,97377.08
2017-08-31T21:36:53.506Z,97388.94
2017-08-31T21:41:40.093Z,97402.33
2017-08-31T21:46:27.146Z,97385.47
2017-08-31T21:51:13.746Z,97371.13
2017-08-31T21:56:00.388Z,97349.20
2017-08-31T22:00:47.005Z,97369.63
2017-08-31T22:05:33.936Z,97361.26
2017-08-31T22:10:20.532Z,97359.14
2017-08-31T22:15:07.160Z,97369.41
2017-08-31T22:19:53.784Z,97356.73
2017-08-31T22:24:40.537Z,97361.58
2017-08-31T22:29:27.130Z,97363.41
2017-08-31T22:34:13.744Z,97348.47
2017-08-31T22:39:00.350Z,97361.13
2017-08-31T22:43:46.985Z,97378.97
2017-08-31T22:48:33.615Z,97386.37
2017-08-31T22:53:20.242Z,97375.74
2017-08-31T22:58:15.148Z,97370.75
2017-08-31T23:03:02.051Z,97370.71
2017-08-31T23:07:48.683Z,97371.95
2017-08-31T23:12:35.361Z,97368.39
2017-08-31T23:17:22.238Z,97378.83
2017-08-31T23:22:08.959Z,97353.16
2017-08-31T23:26:55.603Z,97330.36
2017-08-31T23:31:42.324Z,97332.55
2017-08-31T23:36:28.921Z,97328.41
2017-08-31T23:41:15.865Z,97326.30
2017-08-31T23:46:02.502Z,97351.30
2017-08-31T23:50:49.117Z,97355.80
2017-08-31T23:55:35.727Z,97353.14
